Time;durP1;ratioP1;P1;durP2;ratioP2;P2;SDS_P1;SDS_P2;PMS_P1;PMS_P2;Temp;Humidity;BMP_temperature;BMP_pressure;BME280_temperature;BME280_humidity;BME280_pressure;Samples;Min_cycle;Max_cycle;Signal;HPM_P1;HPM_P2
2021/03/09 09:36:21;;;;;;;17.83;7.77;;;8.40;99.90;;;;;;3670563;23;20256;-70
2021/03/09 09:38:49;;;;;;;18.40;7.87;;;8.40;99.90;;;;;;4915952;29;20221;-71
2021/03/09 09:41:15;;;;;;;20.30;8.83;;;8.40;99.90;;;;;;4913378;29;20214;-77
2021/03/09 09:43:41;;;;;;;23.87;9.40;;;8.30;99.90;;;;;;4915639;29;20574;-73
2021/03/09 09:46:15;;;;;;;28.60;10.57;;;8.20;99.90;;;;;;4914943;29;20589;-70
2021/03/09 09:48:42;;;;;;;20.33;8.93;;;8.20;99.90;;;;;;4915250;29;20220;-77
2021/03/09 09:51:14;;;;;;;17.97;7.13;;;8.30;99.90;;;;;;4915438;29;20343;-73
2021/03/09 09:53:43;;;;;;;18.33;7.80;;;8.60;99.90;;;;;;4915463;29;20240;-74
2021/03/09 09:56:11;;;;;;;21.07;8.03;;;8.80;99.90;;;;;;4915367;29;20213;-75
2021/03/09 09:58:44;;;;;;;19.20;7.97;;;9.00;99.90;;;;;;4914799;29;20213;-71
2021/03/09 10:01:11;;;;;;;18.33;7.70;;;9.10;99.90;;;;;;4915073;29;20629;-76
2021/03/09 10:03:50;;;;;;;21.70;8.83;;;9.00;99.90;;;;;;4922837;29;20223;-71
2021/03/09 10:06:17;;;;;;;19.43;8.00;;;9.00;99.90;;;;;;4920937;29;20229;-77
2021/03/09 10:08:45;;;;;;;19.23;8.23;;;9.00;99.90;;;;;;4924369;29;20208;-72
2021/03/09 10:11:12;;;;;;;20.03;8.43;;;8.90;99.90;;;;;;4924405;29;20248;-69
2021/03/09 10:13:39;;;;;;;23.47;8.43;;;8.80;99.90;;;;;;4915444;29;20225;-78
2021/03/09 10:16:06;;;;;;;19.80;8.73;;;8.70;99.90;;;;;;4915571;29;20214;-75
2021/03/09 10:18:33;;;;;;;21.97;9.10;;;8.70;99.90;;;;;;4915070;29;20213;-81
2021/03/09 10:21:01;;;;;;;22.70;9.50;;;8.90;99.90;;;;;;4915305;29;20261;-75
2021/03/09 10:23:28;;;;;;;21.23;8.97;;;9.00;99.90;;;;;;4915222;29;20234;-68
2021/03/09 10:26:00;;;;;;;22.07;9.60;;;9.10;99.90;;;;;;4914898;29;20284;-76
2021/03/09 10:28:27;;;;;;;17.60;8.33;;;9.20;99.90;;;;;;4920616;29;20212;-70
2021/03/09 10:30:54;;;;;;;21.87;9.40;;;9.20;99.90;;;;;;4922401;29;20558;-69
2021/03/09 10:33:20;;;;;;;22.90;9.57;;;9.40;99.90;;;;;;4924398;29;20276;-74
2021/03/09 10:36:07;;;;;;;22.43;10.03;;;9.50;99.90;;;;;;4914824;29;20323;-75
2021/03/09 10:38:34;;;;;;;22.27;9.10;;;9.70;99.90;;;;;;4918908;29;20252;-70
2021/03/09 10:41:01;;;;;;;19.17;8.73;;;9.80;99.90;;;;;;4914430;29;20210;-69
2021/03/09 10:43:45;;;;;;;17.77;7.93;;;9.80;99.90;;;;;;4914760;29;20234;-77
2021/03/09 10:46:13;;;;;;;18.23;8.93;;;9.80;99.90;;;;;;4915310;29;20281;-73
2021/03/09 10:48:40;;;;;;;25.40;8.57;;;9.80;99.90;;;;;;4915304;29;20213;-76
2021/03/09 10:51:17;;;;;;;18.83;8.83;;;9.70;99.90;;;;;;4915167;29;20206;-77
2021/03/09 10:53:44;;;;;;;21.17;8.73;;;9.50;99.90;;;;;;4914797;29;20288;-74
2021/03/09 10:56:12;;;;;;;19.93;8.97;;;9.40;99.90;;;;;;4915127;29;20213;-73
2021/03/09 10:58:38;;;;;;;18.70;9.47;;;9.20;99.90;;;;;;4914771;29;20278;-79
2021/03/09 11:01:05;;;;;;;19.07;9.17;;;9.10;99.90;;;;;;4914971;29;20206;-76
2021/03/09 11:03:31;;;;;;;21.50;8.97;;;9.20;99.90;;;;;;4911555;29;20780;-74
2021/03/09 11:05:57;;;;;;;19.70;10.00;;;9.30;99.90;;;;;;4914529;29;20241;-69
2021/03/09 11:08:24;;;;;;;20.10;8.97;;;9.40;99.90;;;;;;4919741;29;20202;-75
2021/03/09 11:10:51;;;;;;;18.37;8.73;;;9.60;99.90;;;;;;4934947;29;20358;-78
2021/03/09 11:13:18;;;;;;;25.07;9.27;;;9.90;99.90;;;;;;4925751;29;20232;-73
2021/03/09 11:15:45;;;;;;;27.67;10.40;;;10.10;99.90;;;;;;4923489;29;20209;-72
2021/03/09 11:18:11;;;;;;;18.03;8.53;;;10.10;99.90;;;;;;4927477;29;20201;-73
2021/03/09 11:20:39;;;;;;;22.13;9.47;;;10.20;99.90;;;;;;4917954;29;20295;-72
2021/03/09 11:23:05;;;;;;;18.23;8.77;;;10.20;99.90;;;;;;4920442;29;20226;-78
2021/03/09 11:25:33;;;;;;;17.73;9.20;;;10.20;99.90;;;;;;4918315;29;20245;-77
2021/03/09 11:27:59;;;;;;;18.73;8.70;;;10.10;99.90;;;;;;4917920;29;20682;-72
2021/03/09 11:30:26;;;;;;;18.47;9.07;;;9.90;99.90;;;;;;4917554;29;20217;-72
2021/03/09 11:32:53;;;;;;;17.20;8.03;;;9.80;99.90;;;;;;4917422;29;20229;-76
2021/03/09 11:35:19;;;;;;;15.23;8.37;;;9.80;99.90;;;;;;4925597;29;20208;-74
2021/03/09 11:37:46;;;;;;;14.87;7.27;;;9.60;99.90;;;;;;4917593;29;20228;-76
2021/03/09 11:40:13;;;;;;;19.57;7.70;;;9.50;99.90;;;;;;4917487;29;20210;-71
2021/03/09 11:42:39;;;;;;;16.83;7.40;;;9.50;99.90;;;;;;4917871;29;20564;-74
2021/03/09 11:45:07;;;;;;;18.13;8.47;;;9.60;99.90;;;;;;4918092;29;20217;-76
2021/03/09 11:47:34;;;;;;;16.23;8.40;;;9.50;99.90;;;;;;4917380;29;20273;-73
2021/03/09 11:50:02;;;;;;;16.73;8.57;;;9.60;99.90;;;;;;4917652;29;20226;-69
2021/03/09 11:52:29;;;;;;;18.87;8.03;;;9.70;99.90;;;;;;4917141;29;20206;-70
2021/03/09 11:54:55;;;;;;;17.60;8.27;;;9.70;99.90;;;;;;4917369;29;20233;-72
2021/03/09 11:57:21;;;;;;;16.60;7.43;;;9.70;99.90;;;;;;4917411;29;20213;-74
2021/03/09 11:59:48;;;;;;;13.43;6.63;;;9.60;99.90;;;;;;4917336;29;20209;-72
2021/03/09 12:02:14;;;;;;;17.20;7.77;;;9.70;99.90;;;;;;4925077;29;20568;-73
2021/03/09 12:04:41;;;;;;;15.47;7.37;;;9.60;99.90;;;;;;4916684;29;20229;-71
2021/03/09 12:07:07;;;;;;;17.27;7.27;;;9.70;99.90;;;;;;4925316;29;20228;-71
2021/03/09 12:09:33;;;;;;;14.77;6.57;;;9.80;99.90;;;;;;4917011;29;20206;-72
2021/03/09 12:12:00;;;;;;;15.07;6.97;;;9.90;99.90;;;;;;4918269;29;20212;-72
2021/03/09 12:14:26;;;;;;;14.20;6.33;;;10.00;99.90;;;;;;4918117;29;20562;-72
2021/03/09 12:16:52;;;;;;;10.67;5.97;;;10.00;99.90;;;;;;4918140;29;20213;-71
2021/03/09 12:19:18;;;;;;;12.57;6.40;;;10.10;99.90;;;;;;4918384;29;20220;-72
2021/03/09 12:21:45;;;;;;;12.83;6.57;;;10.20;99.90;;;;;;4917775;29;20209;-72
2021/03/09 12:24:12;;;;;;;15.07;5.70;;;10.40;99.90;;;;;;4918055;29;20229;-71
2021/03/09 12:26:38;;;;;;;11.23;5.80;;;10.70;99.90;;;;;;4918184;29;20244;-72
2021/03/09 12:29:05;;;;;;;9.77;5.20;;;10.70;99.90;;;;;;4917997;29;20672;-72
2021/03/09 12:31:31;;;;;;;7.83;4.27;;;10.60;99.90;;;;;;4918190;29;20261;-72
2021/03/09 12:33:58;;;;;;;10.13;4.43;;;10.60;99.90;;;;;;4918009;29;20226;-72
2021/03/09 12:36:24;;;;;;;9.60;4.67;;;10.60;99.90;;;;;;4917775;29;20244;-72
2021/03/09 12:38:51;;;;;;;10.20;4.73;;;10.60;99.90;;;;;;4919513;29;20268;-72
2021/03/09 12:41:17;;;;;;;7.37;4.13;;;10.60;99.90;;;;;;4917693;29;20605;-72
2021/03/09 12:43:44;;;;;;;7.90;4.00;;;10.70;99.90;;;;;;4917891;29;20234;-71
2021/03/09 12:46:10;;;;;;;8.57;3.70;;;10.70;99.90;;;;;;4917916;29;20230;-71
2021/03/09 12:48:36;;;;;;;9.00;4.07;;;10.50;99.90;;;;;;4917746;29;20610;-72
2021/03/09 12:51:03;;;;;;;7.20;4.23;;;10.20;99.90;;;;;;4917970;29;20592;-72
2021/03/09 12:53:29;;;;;;;7.60;3.60;;;10.00;99.90;;;;;;4918028;29;20225;-72
2021/03/09 12:55:56;;;;;;;8.43;3.20;;;10.10;99.90;;;;;;4917816;29;20213;-74
2021/03/09 12:58:23;;;;;;;6.27;4.07;;;10.20;99.90;;;;;;4918017;29;20608;-73
2021/03/09 13:00:49;;;;;;;6.03;3.27;;;10.20;99.90;;;;;;4917596;29;20668;-71
2021/03/09 13:03:17;;;;;;;7.83;4.07;;;10.20;99.90;;;;;;4917558;29;20241;-71
2021/03/09 13:05:43;;;;;;;6.93;4.30;;;10.20;99.90;;;;;;4917400;29;20732;-71
2021/03/09 13:08:10;;;;;;;6.93;3.63;;;10.10;99.90;;;;;;4917416;29;20224;-70
2021/03/09 13:10:36;;;;;;;6.13;3.70;;;9.90;99.90;;;;;;4916866;29;20214;-70
2021/03/09 13:13:03;;;;;;;5.60;2.93;;;9.80;99.90;;;;;;4916724;29;20747;-70
2021/03/09 13:15:29;;;;;;;4.53;2.87;;;9.80;99.90;;;;;;4914628;29;20268;-71
2021/03/09 13:17:56;;;;;;;5.07;3.10;;;9.60;99.90;;;;;;4933324;29;20291;-72
2021/03/09 13:20:22;;;;;;;4.97;2.87;;;9.70;99.90;;;;;;4935122;29;20348;-72
2021/03/09 13:22:49;;;;;;;6.03;3.77;;;9.80;99.90;;;;;;4935841;29;20209;-75
2021/03/09 13:25:16;;;;;;;5.73;3.27;;;9.90;99.90;;;;;;4928670;29;20213;-73
2021/03/09 13:27:43;;;;;;;5.27;3.43;;;9.90;99.90;;;;;;4916199;29;20269;-74
2021/03/09 13:30:14;;;;;;;5.90;3.73;;;10.00;99.90;;;;;;4916364;29;20217;-73
2021/03/09 13:32:40;;;;;;;5.00;3.30;;;10.10;99.90;;;;;;4925370;29;20212;-73
2021/03/09 13:35:07;;;;;;;7.40;3.77;;;10.20;99.90;;;;;;4935926;29;20219;-74
2021/03/09 13:37:34;;;;;;;8.90;3.53;;;10.30;99.90;;;;;;4935587;29;20221;-72
2021/03/09 13:40:00;;;;;;;7.00;3.83;;;10.40;99.90;;;;;;4935748;29;20212;-73
2021/03/09 13:42:27;;;;;;;8.10;4.17;;;10.40;99.90;;;;;;4935268;29;20571;-72
2021/03/09 13:44:53;;;;;;;10.17;3.90;;;10.50;99.90;;;;;;4935790;29;20232;-72
2021/03/09 13:47:20;;;;;;;7.67;3.57;;;10.50;99.90;;;;;;4935837;29;20248;-73
2021/03/09 13:49:47;;;;;;;10.07;3.73;;;10.70;99.90;;;;;;4935620;29;20219;-72
2021/03/09 13:52:13;;;;;;;7.63;4.43;;;10.70;99.90;;;;;;4935542;29;20220;-72
2021/03/09 13:54:39;;;;;;;6.83;4.20;;;10.60;99.90;;;;;;4935951;29;20233;-73
2021/03/09 13:57:06;;;;;;;8.17;4.40;;;10.60;99.90;;;;;;4935889;29;20330;-72
2021/03/09 13:59:32;;;;;;;8.97;4.23;;;10.80;99.90;;;;;;4935999;29;20213;-73
2021/03/09 14:01:58;;;;;;;6.70;3.77;;;10.90;99.90;;;;;;4935701;29;20224;-73
2021/03/09 14:04:25;;;;;;;9.30;4.43;;;10.90;99.90;;;;;;4935549;29;20233;-72
2021/03/09 14:06:52;;;;;;;7.63;3.93;;;11.00;99.90;;;;;;4935714;29;20240;-72
2021/03/09 14:09:18;;;;;;;8.67;4.33;;;11.10;99.90;;;;;;4935568;29;20549;-72
2021/03/09 14:11:46;;;;;;;6.13;4.10;;;11.30;99.90;;;;;;4935918;29;20209;-73
2021/03/09 14:14:12;;;;;;;8.83;4.63;;;11.40;99.90;;;;;;4935672;29;20224;-72
2021/03/09 14:16:38;;;;;;;7.10;4.47;;;11.40;99.90;;;;;;4935596;29;20680;-72
2021/03/09 14:19:05;;;;;;;8.90;5.23;;;11.60;99.90;;;;;;4935448;29;20209;-72
2021/03/09 14:21:33;;;;;;;8.30;4.33;;;11.60;99.90;;;;;;4935479;29;20620;-72
2021/03/09 14:23:59;;;;;;;8.20;4.80;;;11.40;99.90;;;;;;4935495;29;20239;-72
2021/03/09 14:26:25;;;;;;;6.93;4.30;;;11.20;99.90;;;;;;4935402;29;20236;-73
2021/03/09 14:28:51;;;;;;;8.13;4.53;;;11.20;99.90;;;;;;4935584;29;20212;-73
2021/03/09 14:31:18;;;;;;;8.13;4.53;;;11.20;99.90;;;;;;4935429;29;20209;-73
2021/03/09 14:33:44;;;;;;;7.33;4.30;;;11.10;99.90;;;;;;4935106;29;20228;-73
2021/03/09 14:36:10;;;;;;;9.20;4.50;;;11.20;99.90;;;;;;4935622;29;20561;-73
2021/03/09 14:38:38;;;;;;;9.03;5.40;;;11.10;99.90;;;;;;4935250;29;20644;-72
2021/03/09 14:41:04;;;;;;;9.33;5.43;;;11.10;99.90;;;;;;4935280;29;20205;-72
2021/03/09 14:43:30;;;;;;;10.07;4.83;;;11.10;99.90;;;;;;4935721;29;20241;-72
2021/03/09 14:45:57;;;;;;;9.73;5.03;;;10.90;99.90;;;;;;4938777;29;20209;-73
2021/03/09 14:48:23;;;;;;;9.33;5.53;;;11.00;99.90;;;;;;4938759;29;20209;-72
2021/03/09 14:50:49;;;;;;;8.63;5.17;;;11.00;99.90;;;;;;4938934;29;20216;-72
2021/03/09 14:53:15;;;;;;;10.40;5.37;;;11.00;99.90;;;;;;4938448;29;20237;-72
2021/03/09 14:55:42;;;;;;;10.17;5.00;;;11.10;99.90;;;;;;4938716;29;20267;-72
2021/03/09 14:58:09;;;;;;;10.47;5.40;;;11.00;99.90;;;;;;4938692;29;20224;-74
2021/03/09 15:00:35;;;;;;;9.53;5.83;;;11.00;99.90;;;;;;4938571;29;20219;-74
2021/03/09 15:03:01;;;;;;;10.57;6.03;;;10.80;99.90;;;;;;4938486;29;20229;-69
2021/03/09 15:05:27;;;;;;;14.07;6.73;;;10.50;99.90;;;;;;4938843;29;20206;-74
2021/03/09 15:07:54;;;;;;;13.07;6.53;;;10.40;99.90;;;;;;4938417;29;20723;-76
2021/03/09 15:10:21;;;;;;;14.20;7.23;;;10.30;99.90;;;;;;4938639;29;20227;-74
2021/03/09 15:12:48;;;;;;;20.00;7.47;;;10.20;99.90;;;;;;4938430;29;20216;-75
2021/03/09 15:15:15;;;;;;;15.93;7.17;;;10.10;99.90;;;;;;4938383;29;20623;-73
2021/03/09 15:17:42;;;;;;;19.90;8.00;;;10.10;99.90;;;;;;4938413;29;20216;-74
2021/03/09 15:20:10;;;;;;;15.20;6.40;;;10.20;99.90;;;;;;4938446;29;20213;-76
2021/03/09 15:22:37;;;;;;;13.30;6.60;;;10.20;99.90;;;;;;4937997;29;20260;-77
2021/03/09 15:25:05;;;;;;;11.70;6.07;;;10.20;99.90;;;;;;4937976;29;20213;-76
2021/03/09 15:27:32;;;;;;;13.23;6.10;;;10.20;99.90;;;;;;4937862;29;20243;-74
2021/03/09 15:29:59;;;;;;;9.17;5.20;;;10.00;99.90;;;;;;4936997;29;20205;-74
2021/03/09 15:32:25;;;;;;;12.27;6.30;;;9.80;99.90;;;;;;4915564;29;20213;-70
2021/03/09 15:34:51;;;;;;;12.87;6.77;;;9.70;99.90;;;;;;4924829;29;20233;-72
2021/03/09 15:37:18;;;;;;;10.73;6.17;;;9.60;99.90;;;;;;4935575;29;20228;-78
2021/03/09 15:39:45;;;;;;;14.87;6.73;;;9.70;99.90;;;;;;4937442;29;20213;-75
2021/03/09 15:42:11;;;;;;;12.97;6.87;;;9.80;99.90;;;;;;4937867;29;20211;-72
2021/03/09 15:44:38;;;;;;;15.73;7.07;;;9.70;99.90;;;;;;4937664;29;20225;-75
2021/03/09 15:47:05;;;;;;;14.10;6.00;;;9.60;99.90;;;;;;4938017;29;20232;-71
2021/03/09 15:49:31;;;;;;;12.87;6.37;;;9.60;99.90;;;;;;4937853;29;20277;-69
2021/03/09 15:51:58;;;;;;;13.67;7.23;;;9.70;99.90;;;;;;4937738;29;20557;-69
2021/03/09 15:54:24;;;;;;;12.50;6.70;;;9.50;99.90;;;;;;4937149;29;20237;-73
2021/03/09 15:56:50;;;;;;;14.83;6.33;;;9.50;99.90;;;;;;4936479;29;20213;-71
2021/03/09 15:59:16;;;;;;;13.10;6.37;;;9.40;99.90;;;;;;4937367;29;20211;-69
2021/03/09 16:01:42;;;;;;;11.07;6.70;;;9.40;99.90;;;;;;4937444;29;20213;-71
2021/03/09 16:04:10;;;;;;;11.53;5.87;;;9.40;99.90;;;;;;4937278;29;20228;-70
2021/03/09 16:06:36;;;;;;;12.47;6.40;;;9.50;99.90;;;;;;4937145;29;20243;-70
2021/03/09 16:09:02;;;;;;;12.90;6.33;;;9.50;99.90;;;;;;4935574;29;20201;-71
2021/03/09 16:11:29;;;;;;;14.13;6.70;;;9.50;99.90;;;;;;4936950;29;20747;-74
2021/03/09 16:13:55;;;;;;;14.60;6.97;;;9.60;99.90;;;;;;4918400;29;20640;-76
2021/03/09 16:16:21;;;;;;;14.40;7.13;;;9.60;99.90;;;;;;4917609;29;20209;-74
2021/03/09 16:18:47;;;;;;;13.07;6.33;;;9.70;99.90;;;;;;4918386;29;20217;-71
2021/03/09 16:21:14;;;;;;;14.47;7.53;;;9.70;99.90;;;;;;4918067;29;20224;-73
2021/03/09 16:23:40;;;;;;;13.90;6.87;;;9.60;99.90;;;;;;4917532;29;20229;-69
2021/03/09 16:26:07;;;;;;;12.63;7.20;;;9.60;99.90;;;;;;4917989;29;20213;-72
2021/03/09 16:28:33;;;;;;;13.17;7.03;;;9.60;99.90;;;;;;4918226;29;20216;-75
2021/03/09 16:30:59;;;;;;;14.67;7.80;;;9.60;99.90;;;;;;4917551;29;20209;-76
2021/03/09 16:33:25;;;;;;;14.87;7.50;;;9.60;99.90;;;;;;4917979;29;20237;-69
2021/03/09 16:35:52;;;;;;;13.00;6.43;;;9.60;99.90;;;;;;4918005;29;20216;-71
2021/03/09 16:38:19;;;;;;;13.83;7.37;;;9.60;99.90;;;;;;4917563;29;20237;-73
2021/03/09 16:40:45;;;;;;;12.83;6.73;;;9.60;99.90;;;;;;4917228;29;20209;-69
2021/03/09 16:43:11;;;;;;;12.47;7.03;;;9.40;99.90;;;;;;4917219;29;20236;-70
2021/03/09 16:45:37;;;;;;;13.70;7.17;;;9.40;99.90;;;;;;4917106;29;20224;-72
2021/03/09 16:48:05;;;;;;;15.07;7.93;;;9.30;99.90;;;;;;4917365;29;20710;-74
2021/03/09 16:50:31;;;;;;;20.67;8.97;;;9.30;99.90;;;;;;4917034;29;20237;-73
2021/03/09 16:52:58;;;;;;;15.50;7.87;;;9.30;99.90;;;;;;4917034;29;20233;-72
2021/03/09 16:55:25;;;;;;;17.00;8.20;;;9.30;99.90;;;;;;4917933;29;20213;-72
2021/03/09 16:57:52;;;;;;;17.50;8.30;;;9.20;99.90;;;;;;4917786;29;20209;-71
2021/03/09 17:00:19;;;;;;;15.83;8.27;;;9.20;99.90;;;;;;4917841;29;20554;-72
2021/03/09 17:02:46;;;;;;;17.60;8.43;;;9.10;99.90;;;;;;4917685;29;20684;-71
2021/03/09 17:05:13;;;;;;;15.67;7.77;;;9.10;99.90;;;;;;4917493;29;20225;-71
2021/03/09 17:07:39;;;;;;;17.23;8.27;;;9.20;99.90;;;;;;4916706;29;20280;-72
2021/03/09 17:10:07;;;;;;;20.67;9.23;;;9.20;99.90;;;;;;4916715;29;20262;-72
2021/03/09 17:12:36;;;;;;;16.60;9.03;;;9.10;99.90;;;;;;4916797;29;20213;-72
2021/03/09 17:15:03;;;;;;;18.20;7.87;;;9.10;99.90;;;;;;4916905;29;20577;-74
2021/03/09 17:17:29;;;;;;;16.47;7.90;;;9.10;99.90;;;;;;4916630;29;20218;-70
2021/03/09 17:19:56;;;;;;;17.17;9.10;;;9.10;99.90;;;;;;4916752;29;20217;-70
2021/03/09 17:22:22;;;;;;;18.57;8.13;;;9.20;99.90;;;;;;4915998;29;20212;-68
2021/03/09 17:24:48;;;;;;;18.23;8.53;;;9.10;99.90;;;;;;4916408;29;20234;-69
2021/03/09 17:27:16;;;;;;;15.37;7.23;;;9.20;99.90;;;;;;4916513;29;20245;-69
2021/03/09 17:29:43;;;;;;;16.17;8.37;;;9.10;99.90;;;;;;4917398;29;20214;-70
2021/03/09 17:32:09;;;;;;;13.97;7.80;;;9.10;99.90;;;;;;4916999;29;20208;-70
2021/03/09 17:34:36;;;;;;;15.57;8.27;;;9.30;99.90;;;;;;4916906;29;20240;-70
2021/03/09 17:37:03;;;;;;;19.13;8.40;;;9.40;99.90;;;;;;4916174;29;20381;-70
2021/03/09 17:39:29;;;;;;;15.77;7.83;;;9.40;99.90;;;;;;4916022;29;20206;-71
2021/03/09 17:41:56;;;;;;;17.20;7.50;;;9.20;99.90;;;;;;4916392;29;20216;-69
2021/03/09 17:44:22;;;;;;;15.30;7.83;;;9.10;99.90;;;;;;4916395;29;20288;-72
2021/03/09 17:46:49;;;;;;;14.93;7.57;;;9.10;99.90;;;;;;4915832;29;20233;-70
2021/03/09 17:49:16;;;;;;;19.80;9.03;;;9.10;99.90;;;;;;4916105;29;20217;-70
2021/03/09 17:51:42;;;;;;;16.93;8.20;;;9.20;99.90;;;;;;4915910;29;20230;-72
2021/03/09 17:54:09;;;;;;;13.43;7.70;;;9.20;99.90;;;;;;4916225;29;20256;-70
2021/03/09 17:56:35;;;;;;;17.13;8.40;;;9.30;99.90;;;;;;4916492;29;20217;-68
2021/03/09 17:59:01;;;;;;;17.40;7.70;;;9.20;99.90;;;;;;4916519;29;20307;-69
2021/03/09 18:01:28;;;;;;;15.30;7.87;;;9.20;99.90;;;;;;4915723;29;20210;-72
2021/03/09 18:03:55;;;;;;;17.73;8.87;;;9.30;99.90;;;;;;4915413;29;20229;-71
2021/03/09 18:06:21;;;;;;;17.90;8.50;;;9.30;99.90;;;;;;4914940;29;20213;-70
2021/03/09 18:08:47;;;;;;;16.70;8.00;;;9.10;99.90;;;;;;4915042;29;20210;-70
2021/03/09 18:11:14;;;;;;;19.80;8.20;;;9.20;99.90;;;;;;4915783;29;20213;-70
2021/03/09 18:13:40;;;;;;;15.93;7.67;;;9.30;99.90;;;;;;4915418;29;20597;-71
2021/03/09 18:16:06;;;;;;;17.37;8.57;;;9.30;99.90;;;;;;4915185;29;20210;-71
2021/03/09 18:18:33;;;;;;;13.90;7.73;;;9.30;99.90;;;;;;4915715;29;20621;-70
2021/03/09 18:21:00;;;;;;;16.60;8.20;;;9.40;99.90;;;;;;4919834;29;20573;-74
2021/03/09 18:23:26;;;;;;;15.93;8.10;;;9.40;99.90;;;;;;4919775;29;20236;-73
2021/03/09 18:25:52;;;;;;;14.97;8.33;;;9.30;99.90;;;;;;4920073;29;20220;-70
2021/03/09 18:28:19;;;;;;;18.30;8.40;;;9.30;99.90;;;;;;4918857;29;20241;-71
2021/03/09 18:30:45;;;;;;;17.57;9.17;;;9.30;99.90;;;;;;4920171;29;20220;-70
2021/03/09 18:33:11;;;;;;;17.10;8.87;;;9.30;99.90;;;;;;4920602;29;20229;-70
2021/03/09 18:35:37;;;;;;;18.00;9.27;;;9.30;99.90;;;;;;4920900;29;20788;-72
2021/03/09 18:38:04;;;;;;;17.37;9.60;;;9.40;99.90;;;;;;4921178;29;20224;-72
2021/03/09 18:40:31;;;;;;;17.20;7.87;;;9.40;99.90;;;;;;4920528;29;20677;-72
2021/03/09 18:42:57;;;;;;;15.30;8.50;;;9.50;99.90;;;;;;4920449;29;20229;-72
2021/03/09 18:45:23;;;;;;;18.67;8.53;;;9.50;99.90;;;;;;4920637;29;20214;-72
2021/03/09 18:47:49;;;;;;;15.93;8.77;;;9.50;99.90;;;;;;4920370;29;20237;-72
2021/03/09 18:50:16;;;;;;;17.30;8.57;;;9.50;99.90;;;;;;4920422;29;20209;-72
2021/03/09 18:52:43;;;;;;;22.37;9.60;;;9.50;99.90;;;;;;4920024;29;20225;-72
2021/03/09 18:55:10;;;;;;;17.40;8.50;;;9.50;99.90;;;;;;4920662;29;20244;-71
2021/03/09 18:57:37;;;;;;;21.47;9.93;;;9.50;99.90;;;;;;4920239;29;20213;-72
2021/03/09 19:00:05;;;;;;;18.27;8.33;;;9.50;99.90;;;;;;4920011;29;20225;-72
2021/03/09 19:02:31;;;;;;;17.60;9.00;;;9.40;99.90;;;;;;4919722;29;20209;-72
2021/03/09 19:04:57;;;;;;;15.93;8.67;;;9.30;99.90;;;;;;4920090;29;20230;-72
2021/03/09 19:07:24;;;;;;;18.70;8.47;;;9.20;99.90;;;;;;4919704;29;20585;-72
2021/03/09 19:09:51;;;;;;;15.73;9.60;;;9.10;99.90;;;;;;4919652;29;20213;-72
2021/03/09 19:12:18;;;;;;;17.70;10.10;;;9.20;99.90;;;;;;4920846;29;20581;-72
2021/03/09 19:14:44;;;;;;;20.40;9.33;;;9.20;99.90;;;;;;4921411;29;20230;-72
2021/03/09 19:17:11;;;;;;;19.03;9.67;;;9.30;99.90;;;;;;4921204;29;20205;-71
2021/03/09 19:19:37;;;;;;;16.50;8.80;;;9.20;99.90;;;;;;4920661;29;20206;-72
2021/03/09 19:22:04;;;;;;;19.70;9.60;;;9.30;99.90;;;;;;4919963;29;20542;-72
2021/03/09 19:24:30;;;;;;;21.37;10.17;;;9.30;99.90;;;;;;4920040;29;20240;-71
2021/03/09 19:26:57;;;;;;;20.60;9.83;;;9.30;99.90;;;;;;4919612;29;20288;-71
2021/03/09 19:29:24;;;;;;;17.40;9.80;;;9.30;99.90;;;;;;4917748;29;20224;-71
2021/03/09 19:31:50;;;;;;;18.00;9.77;;;9.30;99.90;;;;;;4918278;29;20210;-74
2021/03/09 19:34:16;;;;;;;19.87;9.33;;;9.30;99.90;;;;;;4918618;29;20230;-72
2021/03/09 19:36:43;;;;;;;20.67;9.90;;;9.40;99.90;;;;;;4918807;29;20225;-71
2021/03/09 19:39:09;;;;;;;22.83;10.17;;;9.40;99.90;;;;;;4918650;29;20209;-69
2021/03/09 19:41:35;;;;;;;21.17;9.93;;;9.40;99.90;;;;;;4918373;29;20284;-76
2021/03/09 19:44:02;;;;;;;17.53;8.37;;;9.40;99.90;;;;;;4918112;29;20277;-73
2021/03/09 19:46:29;;;;;;;17.07;8.73;;;9.40;99.90;;;;;;4918742;29;20626;-74
2021/03/09 19:48:56;;;;;;;19.10;9.57;;;9.40;99.90;;;;;;4918368;29;20210;-73
2021/03/09 19:51:22;;;;;;;20.70;9.43;;;9.40;99.90;;;;;;4918363;29;20260;-73
2021/03/09 19:53:48;;;;;;;20.33;10.07;;;9.50;99.90;;;;;;4918369;29;20237;-72
2021/03/09 19:56:15;;;;;;;19.93;9.83;;;9.50;99.90;;;;;;4918407;29;20216;-70
2021/03/09 19:58:42;;;;;;;19.70;9.67;;;9.50;99.90;;;;;;4917683;29;20304;-70
2021/03/09 20:01:08;;;;;;;21.10;10.07;;;9.50;99.90;;;;;;4918049;29;20656;-71
2021/03/09 20:03:36;;;;;;;20.60;10.23;;;9.60;99.90;;;;;;4918136;29;20230;-71
2021/03/09 20:06:03;;;;;;;24.87;10.03;;;9.60;99.90;;;;;;4917574;29;20264;-70
2021/03/09 20:08:29;;;;;;;18.40;9.43;;;9.60;99.90;;;;;;4917155;29;20256;-70
2021/03/09 20:10:55;;;;;;;19.23;9.93;;;9.50;99.90;;;;;;4917683;29;20574;-71
2021/03/09 20:13:23;;;;;;;23.43;9.93;;;9.50;99.90;;;;;;4917657;29;20233;-70
2021/03/09 20:15:50;;;;;;;22.57;9.70;;;9.50;99.90;;;;;;4917436;29;20210;-70
2021/03/09 20:18:17;;;;;;;21.73;10.63;;;9.50;99.90;;;;;;4918156;29;20214;-70
2021/03/09 20:20:45;;;;;;;20.47;9.47;;;9.50;99.90;;;;;;4917740;29;20236;-69
2021/03/09 20:23:11;;;;;;;19.70;9.97;;;9.50;99.90;;;;;;4923464;29;20272;-69
2021/03/09 20:25:37;;;;;;;20.23;9.60;;;9.50;99.90;;;;;;4924179;29;20213;-69
2021/03/09 20:28:04;;;;;;;19.57;9.03;;;9.50;99.90;;;;;;4921472;29;20248;-74
2021/03/09 20:30:31;;;;;;;17.07;9.27;;;9.50;99.90;;;;;;4919311;29;20221;-72
2021/03/09 20:32:57;;;;;;;20.70;9.83;;;9.50;99.90;;;;;;4918269;29;20233;-71
2021/03/09 20:35:23;;;;;;;18.03;9.97;;;9.40;99.90;;;;;;4924000;29;20700;-71
2021/03/09 20:37:50;;;;;;;18.03;9.80;;;9.40;99.90;;;;;;4917232;29;20248;-73
2021/03/09 20:40:17;;;;;;;18.23;9.03;;;9.30;99.90;;;;;;4926072;29;20234;-71
2021/03/09 20:42:44;;;;;;;18.53;9.87;;;9.30;99.90;;;;;;4911755;29;20289;-71
2021/03/09 20:45:12;;;;;;;17.17;9.07;;;9.20;99.90;;;;;;4910072;29;20696;-71
2021/03/09 20:47:39;;;;;;;17.20;8.27;;;9.20;99.90;;;;;;4907201;29;20234;-71
2021/03/09 20:50:08;;;;;;;21.47;10.00;;;9.20;99.90;;;;;;4905612;29;20215;-70
2021/03/09 20:52:35;;;;;;;19.73;10.30;;;9.30;99.90;;;;;;4912362;29;20930;-71
2021/03/09 20:55:02;;;;;;;18.50;10.07;;;9.30;99.90;;;;;;4908335;29;20209;-71
2021/03/09 20:57:29;;;;;;;24.37;10.37;;;9.20;99.90;;;;;;4910837;29;20665;-70
2021/03/09 20:59:55;;;;;;;23.50;10.83;;;9.30;99.90;;;;;;4904111;29;20210;-70
2021/03/09 21:02:21;;;;;;;22.13;10.47;;;9.20;99.90;;;;;;4915410;29;20217;-70
2021/03/09 21:04:47;;;;;;;25.07;9.73;;;9.10;99.90;;;;;;4905973;29;20639;-72
2021/03/09 21:07:14;;;;;;;21.50;9.60;;;9.00;99.90;;;;;;4911759;29;20241;-71
2021/03/09 21:09:41;;;;;;;20.10;10.57;;;8.90;99.90;;;;;;4913279;29;20264;-70
2021/03/09 21:12:09;;;;;;;18.63;9.87;;;9.10;99.90;;;;;;4908663;29;20657;-70
2021/03/09 21:14:36;;;;;;;19.43;9.27;;;9.10;99.90;;;;;;4909867;29;20787;-71
2021/03/09 21:17:02;;;;;;;22.90;9.50;;;9.00;99.90;;;;;;4906261;29;20225;-71
2021/03/09 21:19:29;;;;;;;20.77;10.00;;;9.10;99.90;;;;;;4906992;29;20217;-70
2021/03/09 21:21:55;;;;;;;21.33;10.13;;;9.10;99.90;;;;;;4905171;29;20210;-71
2021/03/09 21:24:21;;;;;;;21.53;9.77;;;9.20;99.90;;;;;;4909195;29;20232;-70
2021/03/09 21:26:47;;;;;;;20.10;9.40;;;9.20;99.90;;;;;;4909023;29;20209;-71
2021/03/09 21:29:14;;;;;;;20.23;10.83;;;9.20;99.90;;;;;;4903998;29;20214;-71
2021/03/09 21:31:41;;;;;;;17.83;9.33;;;9.20;99.90;;;;;;4905944;29;20201;-70
2021/03/09 21:34:07;;;;;;;18.53;9.30;;;9.20;99.90;;;;;;4919059;29;20232;-70
2021/03/09 21:36:33;;;;;;;17.33;8.70;;;9.20;99.90;;;;;;4913497;29;20219;-71
2021/03/09 21:39:00;;;;;;;20.57;9.07;;;9.20;99.90;;;;;;4904270;29;20211;-70
2021/03/09 21:41:26;;;;;;;22.20;10.57;;;9.10;99.90;;;;;;4907145;29;20213;-70
2021/03/09 21:43:52;;;;;;;18.93;9.57;;;8.90;99.90;;;;;;4913022;29;20623;-70
2021/03/09 21:46:19;;;;;;;21.20;8.93;;;8.80;99.90;;;;;;4908258;29;20217;-71
2021/03/09 21:48:45;;;;;;;19.93;9.73;;;8.80;99.90;;;;;;4904901;29;20241;-72
2021/03/09 21:51:12;;;;;;;18.50;9.60;;;8.70;99.90;;;;;;4910715;29;20210;-71
2021/03/09 21:53:38;;;;;;;18.20;9.40;;;8.70;99.90;;;;;;4908378;29;20565;-70
2021/03/09 21:56:05;;;;;;;21.17;9.77;;;8.60;99.90;;;;;;4903691;29;20623;-72
2021/03/09 21:58:31;;;;;;;19.93;9.67;;;8.60;99.90;;;;;;4913885;29;20205;-70
2021/03/09 22:00:57;;;;;;;18.50;8.37;;;8.50;99.90;;;;;;4907093;29;20206;-70
2021/03/09 22:03:24;;;;;;;19.63;9.30;;;8.60;99.90;;;;;;4909078;29;20230;-73
2021/03/09 22:05:50;;;;;;;23.03;10.00;;;8.50;99.90;;;;;;4906760;29;20211;-71
2021/03/09 22:08:17;;;;;;;19.93;9.70;;;8.50;99.90;;;;;;4910432;29;20234;-70
2021/03/09 22:10:43;;;;;;;21.47;9.47;;;8.50;99.90;;;;;;4908244;29;20202;-70
2021/03/09 22:13:09;;;;;;;22.30;10.30;;;8.40;99.90;;;;;;4905555;29;20249;-72
2021/03/09 22:15:35;;;;;;;21.90;10.03;;;8.40;99.90;;;;;;4910435;29;20213;-70
2021/03/09 22:18:02;;;;;;;19.13;9.37;;;8.50;99.90;;;;;;4909133;29;20214;-71